Time;durP1;ratioP1;P1;durP2;ratioP2;P2;SDS_P1;SDS_P2;PMS_P1;PMS_P2;Temp;Humidity;BMP_temperature;BMP_pressure;BME280_temperature;BME280_humidity;BME280_pressure;Samples;Min_cycle;Max_cycle;Signal;HPM_P1;HPM_P2
2020/12/25 00:02:59;;;;;;;13.28;3.72;;;;;;;3.35;89.46;97839.18;2111856;84;21320;-73
2020/12/25 00:06:01;;;;;;;12.47;3.77;;;;;;;3.31;89.60;97850.59;2205985;80;21139;-71
2020/12/25 00:09:02;;;;;;;13.78;3.45;;;;;;;3.28;90.07;97856.77;2091749;84;21285;-67
2020/12/25 00:12:03;;;;;;;13.22;3.90;;;;;;;3.25;90.29;97852.20;2206181;80;21258;-64
2020/12/25 00:15:04;;;;;;;12.15;3.37;;;;;;;3.24;90.44;97846.62;2111637;84;21149;-78
2020/12/25 00:18:05;;;;;;;11.20;3.30;;;;;;;3.23;90.15;97858.75;2206103;81;21745;-76
2020/12/25 00:21:08;;;;;;;10.00;3.12;;;;;;;3.24;90.22;97877.72;2111647;84;21150;-64
2020/12/25 00:24:09;;;;;;;12.98;3.77;;;;;;;3.20;90.25;97884.78;2205969;80;21155;-65
2020/12/25 00:27:11;;;;;;;18.37;6.00;;;;;;;3.16;89.86;97885.86;2091610;84;21747;-65
2020/12/25 00:30:12;;;;;;;19.25;6.47;;;;;;;3.12;90.42;97924.48;2206184;80;21317;-64
2020/12/25 00:33:13;;;;;;;19.23;6.85;;;;;;;3.05;90.84;97899.29;2112063;84;21123;-64
2020/12/25 00:36:14;;;;;;;18.45;6.90;;;;;;;3.00;91.35;97909.47;2205906;81;21151;-64
2020/12/25 00:39:15;;;;;;;21.52;7.47;;;;;;;2.97;91.18;97912.20;2091665;84;21162;-64
2020/12/25 00:42:17;;;;;;;20.82;7.65;;;;;;;2.95;91.41;97922.64;2206384;81;21293;-65
2020/12/25 00:45:18;;;;;;;21.25;8.30;;;;;;;2.94;91.24;97920.95;2111624;84;21153;-64
2020/12/25 00:48:20;;;;;;;18.50;6.90;;;;;;;2.90;91.69;97940.12;2206147;81;21151;-65
2020/12/25 00:51:21;;;;;;;18.82;5.50;;;;;;;2.85;90.67;97946.80;2111862;84;21578;-66
2020/12/25 00:54:22;;;;;;;18.40;6.20;;;;;;;2.82;89.51;97956.00;2206026;80;21253;-65
2020/12/25 00:57:23;;;;;;;19.25;6.92;;;;;;;2.77;89.94;97961.83;2111534;84;21126;-65
2020/12/25 01:00:24;;;;;;;17.67;6.08;;;;;;;2.72;90.37;97959.44;2206166;81;21281;-78
2020/12/25 01:03:25;;;;;;;18.90;6.47;;;;;;;2.67;90.06;97963.99;2112065;84;21699;-80
2020/12/25 01:06:26;;;;;;;19.02;6.28;;;;;;;2.64;90.37;97960.22;2206346;81;21266;-74
2020/12/25 01:09:27;;;;;;;19.75;6.37;;;;;;;2.63;89.94;97978.41;2111617;84;21157;-64
2020/12/25 01:12:29;;;;;;;18.98;6.40;;;;;;;2.62;90.18;97974.98;2206402;80;21273;-68
2020/12/25 01:15:30;;;;;;;17.95;6.15;;;;;;;2.63;90.02;97974.09;2111613;84;21115;-66
2020/12/25 01:18:31;;;;;;;18.40;6.15;;;;;;;2.65;90.19;97968.38;2205849;81;21175;-70
2020/12/25 01:21:32;;;;;;;19.15;5.83;;;;;;;2.68;90.00;97968.70;2111710;84;21154;-65
2020/12/25 01:24:34;;;;;;;20.43;6.65;;;;;;;2.68;90.06;97978.60;2205876;80;21183;-66
2020/12/25 01:27:35;;;;;;;20.17;6.62;;;;;;;2.67;89.93;97990.32;2111565;84;21146;-64
2020/12/25 01:30:36;;;;;;;18.98;6.37;;;;;;;2.62;90.59;97994.88;2175623;81;21722;-64
2020/12/25 01:33:38;;;;;;;20.68;6.78;;;;;;;2.57;90.77;97998.48;2111795;84;21607;-66
2020/12/25 01:36:39;;;;;;;17.70;5.55;;;;;;;2.55;90.84;97998.98;2206307;80;21301;-65
2020/12/25 01:39:40;;;;;;;16.90;5.53;;;;;;;2.53;90.66;98002.54;2118687;83;21118;-64
2020/12/25 01:42:41;;;;;;;18.35;6.17;;;;;;;2.51;91.15;98009.55;2199971;81;21701;-64
2020/12/25 01:45:42;;;;;;;20.08;6.00;;;;;;;2.49;91.04;98009.61;2199914;81;21393;-64
2020/12/25 01:48:43;;;;;;;20.75;6.15;;;;;;;2.49;91.03;98012.20;2118542;84;21610;-64
2020/12/25 01:51:44;;;;;;;19.90;7.20;;;;;;;2.47;91.14;98021.78;2199976;81;21313;-64
2020/12/25 01:54:46;;;;;;;20.55;7.03;;;;;;;2.46;91.20;98023.11;2200038;81;21281;-64
2020/12/25 01:57:47;;;;;;;19.15;6.95;;;;;;;2.46;90.98;98023.11;2118629;84;21613;-65
2020/12/25 02:00:48;;;;;;;21.48;7.12;;;;;;;2.46;91.31;98026.56;2199804;81;21278;-73
2020/12/25 02:03:49;;;;;;;20.12;7.35;;;;;;;2.47;91.02;98024.80;2200017;81;21266;-69
2020/12/25 02:06:50;;;;;;;20.65;7.45;;;;;;;2.46;90.94;98031.73;2199760;81;21285;-76
2020/12/25 02:09:51;;;;;;;20.25;7.47;;;;;;;2.49;90.74;98038.55;2118883;84;21296;-68
2020/12/25 02:12:52;;;;;;;22.00;7.85;;;;;;;2.49;90.52;98042.43;2200204;81;21290;-67
2020/12/25 02:15:54;;;;;;;20.77;7.25;;;;;;;2.45;90.00;98061.11;2199952;81;21129;-64
2020/12/25 02:18:55;;;;;;;18.20;6.62;;;;;;;2.44;90.21;98060.71;2200017;81;21341;-71
2020/12/25 02:21:56;;;;;;;19.55;6.50;;;;;;;2.43;90.26;98065.52;2199953;81;21281;-69
2020/12/25 02:24:57;;;;;;;20.50;7.15;;;;;;;2.44;90.28;98071.06;2200210;81;21275;-76
2020/12/25 02:27:58;;;;;;;20.95;7.78;;;;;;;2.41;90.29;98078.53;2100322;84;21743;-67
2020/12/25 02:30:59;;;;;;;19.30;7.17;;;;;;;2.38;90.47;98083.80;2200459;81;21160;-69
2020/12/25 02:34:00;;;;;;;20.70;7.22;;;;;;;2.37;90.26;98080.84;2199964;81;21273;-68
2020/12/25 02:37:02;;;;;;;19.65;7.58;;;;;;;2.37;90.28;98078.25;2200045;81;21710;-73
2020/12/25 02:40:03;;;;;;;20.70;6.60;;;;;;;2.38;90.24;98082.50;2199979;81;21274;-67
2020/12/25 02:43:05;;;;;;;19.45;7.08;;;;;;;2.38;90.09;98076.03;2118642;84;21166;-66
2020/12/25 02:46:06;;;;;;;20.37;7.42;;;;;;;2.39;90.20;98091.13;2200013;81;21305;-64
2020/12/25 02:49:08;;;;;;;22.17;7.90;;;;;;;2.39;89.97;98093.72;2200307;81;21731;-65
2020/12/25 02:52:09;;;;;;;18.60;5.83;;;;;;;2.37;90.23;98109.74;2119051;83;21309;-65
2020/12/25 02:55:10;;;;;;;20.55;6.75;;;;;;;2.36;89.83;98108.91;2199931;81;21155;-64
2020/12/25 02:58:11;;;;;;;20.85;6.65;;;;;;;2.33;89.95;98123.27;2199903;81;21293;-65
2020/12/25 03:01:12;;;;;;;18.10;5.97;;;;;;;2.33;89.81;98121.98;2118705;84;21197;-64
2020/12/25 03:04:13;;;;;;;18.00;6.25;;;;;;;2.35;89.77;98116.27;2200071;81;21693;-68
2020/12/25 03:07:14;;;;;;;19.23;6.85;;;;;;;2.34;89.63;98120.22;2199893;81;21572;-64
2020/12/25 03:10:15;;;;;;;17.40;6.12;;;;;;;2.34;89.90;98117.63;2199921;81;21270;-66
2020/12/25 03:13:16;;;;;;;18.75;6.42;;;;;;;2.32;89.82;98120.28;2199982;81;21737;-64
2020/12/25 03:16:18;;;;;;;20.27;6.15;;;;;;;2.30;89.89;98121.23;2200369;81;21159;-64
2020/12/25 03:19:19;;;;;;;18.73;6.65;;;;;;;2.30;89.96;98124.69;2200375;81;21120;-64
2020/12/25 03:22:20;;;;;;;19.05;6.60;;;;;;;2.29;90.00;98125.58;2199901;81;21265;-64
2020/12/25 03:25:21;;;;;;;19.35;6.62;;;;;;;2.29;90.07;98125.58;2200014;81;21714;-65
2020/12/25 03:28:22;;;;;;;22.37;7.28;;;;;;;2.28;90.13;98131.66;2118769;83;21590;-68
2020/12/25 03:31:23;;;;;;;17.65;6.42;;;;;;;2.28;90.13;98141.17;2200400;81;21136;-65
2020/12/25 03:34:24;;;;;;;19.00;6.47;;;;;;;2.27;89.99;98142.06;2200378;81;21120;-66
2020/12/25 03:37:25;;;;;;;18.23;6.17;;;;;;;2.28;89.82;98148.94;2199760;81;21274;-67
2020/12/25 03:40:27;;;;;;;17.90;5.90;;;;;;;2.25;89.81;98149.42;2200029;81;21277;-64
2020/12/25 03:43:28;;;;;;;19.40;6.53;;;;;;;2.23;89.40;98157.71;2200567;81;21143;-64
2020/12/25 03:46:30;;;;;;;20.35;6.40;;;;;;;2.22;89.61;98163.78;2199876;81;21138;-64
2020/12/25 03:49:31;;;;;;;18.32;6.00;;;;;;;2.21;89.58;98159.95;2200117;81;21281;-65
2020/12/25 03:52:32;;;;;;;16.48;5.37;;;;;;;2.19;89.66;98164.36;2200362;81;21179;-65
2020/12/25 03:55:33;;;;;;;18.32;5.30;;;;;;;2.18;89.37;98160.91;2118534;83;21300;-64
2020/12/25 03:58:34;;;;;;;18.65;5.15;;;;;;;2.19;89.13;98170.83;2200048;81;21713;-64
2020/12/25 04:01:35;;;;;;;15.93;5.05;;;;;;;2.19;89.35;98165.20;2199896;81;21320;-65
2020/12/25 04:04:36;;;;;;;17.55;5.33;;;;;;;2.20;89.46;98169.94;2200308;81;21277;-68
2020/12/25 04:07:37;;;;;;;15.55;4.80;;;;;;;2.19;89.29;98167.78;2118497;83;21284;-72
2020/12/25 04:10:38;;;;;;;15.43;4.75;;;;;;;2.17;89.42;98165.72;2199949;81;21701;-64
2020/12/25 04:13:39;;;;;;;15.98;4.78;;;;;;;2.17;89.43;98164.85;2118498;83;21296;-65
2020/12/25 04:16:41;;;;;;;15.23;4.50;;;;;;;2.16;89.23;98167.90;2199828;81;21265;-65
2020/12/25 04:19:42;;;;;;;15.58;4.80;;;;;;;2.14;89.18;98168.42;2118504;83;21150;-66
2020/12/25 04:22:43;;;;;;;15.60;4.95;;;;;;;2.12;89.38;98171.95;2199863;81;21274;-64
2020/12/25 04:25:44;;;;;;;16.37;4.80;;;;;;;2.11;89.29;98180.61;2200077;81;21292;-66
2020/12/25 04:28:45;;;;;;;16.80;4.70;;;;;;;2.08;89.14;98181.56;2199813;81;21269;-65
2020/12/25 04:31:47;;;;;;;16.75;4.95;;;;;;;2.07;89.57;98185.07;2199939;81;21713;-64
2020/12/25 04:34:48;;;;;;;15.48;4.80;;;;;;;2.04;89.67;98189.03;2200276;81;21135;-64
2020/12/25 04:37:49;;;;;;;14.90;4.55;;;;;;;2.02;89.58;98194.73;2199164;81;21281;-65
2020/12/25 04:40:50;;;;;;;14.58;4.90;;;;;;;1.99;89.60;98185.33;2111980;84;21301;-76
2020/12/25 04:43:51;;;;;;;16.65;4.92;;;;;;;1.97;89.91;98188.44;2205907;80;21132;-71
2020/12/25 04:46:52;;;;;;;15.30;4.90;;;;;;;1.93;90.04;98188.15;2112027;84;21281;-70
2020/12/25 04:49:53;;;;;;;17.07;5.17;;;;;;;1.91;90.21;98189.93;2205953;80;21589;-72
2020/12/25 04:52:54;;;;;;;13.50;4.60;;;;;;;1.89;90.24;98189.16;2111631;84;21130;-66
2020/12/25 04:55:55;;;;;;;15.43;4.85;;;;;;;1.87;90.34;98191.80;2205899;80;21605;-71
2020/12/25 04:58:57;;;;;;;16.15;4.87;;;;;;;1.86;90.25;98186.69;2111752;84;21166;-69
2020/12/25 05:01:59;;;;;;;14.60;4.70;;;;;;;1.84;90.32;98194.92;2206289;80;21590;-71
2020/12/25 05:05:00;;;;;;;17.20;5.70;;;;;;;1.84;90.13;98198.80;2112067;84;21296;-71
2020/12/25 05:08:01;;;;;;;14.63;5.25;;;;;;;1.83;90.40;98201.85;2205881;80;21150;-64
2020/12/25 05:11:02;;;;;;;17.60;5.58;;;;;;;1.82;90.72;98202.75;2111635;84;21186;-68
2020/12/25 05:14:03;;;;;;;15.32;4.85;;;;;;;1.83;90.78;98202.31;2206151;80;21284;-64
2020/12/25 05:17:04;;;;;;;16.02;4.85;;;;;;;1.84;90.71;98201.39;2111548;84;21142;-68
2020/12/25 05:20:06;;;;;;;15.50;5.08;;;;;;;1.82;90.69;98209.20;2206401;80;21139;-67
2020/12/25 05:23:07;;;;;;;15.23;5.03;;;;;;;1.83;90.75;98208.32;2111607;84;21629;-64
2020/12/25 05:26:08;;;;;;;16.15;4.70;;;;;;;1.86;90.54;98217.72;2206178;80;21273;-64
2020/12/25 05:29:09;;;;;;;15.58;4.95;;;;;;;1.89;90.64;98224.91;2111555;84;21142;-65
2020/12/25 05:32:10;;;;;;;17.32;5.42;;;;;;;1.92;90.51;98234.30;2206093;80;21312;-65
2020/12/25 05:35:11;;;;;;;16.73;5.10;;;;;;;1.94;90.20;98238.99;2112020;84;21305;-64
2020/12/25 05:38:13;;;;;;;15.65;4.95;;;;;;;1.96;90.00;98245.41;2205776;80;21138;-64
2020/12/25 05:41:14;;;;;;;13.98;4.72;;;;;;;1.99;90.05;98250.46;2111720;84;21566;-64
2020/12/25 05:44:15;;;;;;;14.80;4.65;;;;;;;2.00;89.59;98248.28;2205865;80;21135;-65
2020/12/25 05:47:16;;;;;;;14.78;4.78;;;;;;;2.02;89.99;98249.05;2111516;84;21138;-64
2020/12/25 05:50:17;;;;;;;14.98;4.90;;;;;;;2.03;89.73;98253.34;2206354;80;21274;-64
2020/12/25 05:53:18;;;;;;;15.63;4.95;;;;;;;2.02;89.68;98255.52;2111746;84;21281;-64
2020/12/25 05:56:19;;;;;;;16.12;5.00;;;;;;;2.03;89.60;98253.34;2205878;81;21095;-64
2020/12/25 05:59:20;;;;;;;15.20;4.62;;;;;;;2.05;89.43;98271.80;2111739;84;21312;-64
2020/12/25 06:02:21;;;;;;;12.37;4.03;;;;;;;2.05;88.97;98269.21;2206094;80;21702;-68
2020/12/25 06:05:23;;;;;;;15.00;3.90;;;;;;;2.08;89.15;98276.00;2205992;81;21563;-75
2020/12/25 06:08:24;;;;;;;13.08;3.70;;;;;;;2.13;88.96;98271.98;2111527;84;21162;-64
2020/12/25 06:11:25;;;;;;;11.43;3.77;;;;;;;2.13;88.59;98277.98;2175748;81;21746;-66
2020/12/25 06:14:26;;;;;;;14.25;4.33;;;;;;;2.11;88.69;98278.93;2111884;84;21288;-65
2020/12/25 06:17:27;;;;;;;13.93;3.80;;;;;;;2.08;88.66;98285.91;2205775;80;21168;-65
2020/12/25 06:20:28;;;;;;;11.30;3.60;;;;;;;2.08;88.78;98292.38;2206278;81;21257;-66
2020/12/25 06:23:29;;;;;;;13.85;3.55;;;;;;;2.11;87.88;98297.04;2111814;84;21257;-65
2020/12/25 06:26:31;;;;;;;10.78;3.30;;;;;;;2.10;88.50;98300.52;2206114;80;21269;-64
2020/12/25 06:29:32;;;;;;;11.45;3.85;;;;;;;2.09;88.61;98304.86;2111572;84;21183;-65
2020/12/25 06:32:33;;;;;;;10.98;3.80;;;;;;;2.08;88.65;98313.08;2206100;81;21744;-64
2020/12/25 06:35:34;;;;;;;15.35;4.60;;;;;;;2.07;88.67;98319.61;2112021;84;21300;-68
2020/12/25 06:38:35;;;;;;;13.55;4.50;;;;;;;2.04;88.91;98320.55;2205922;81;21302;-70
2020/12/25 06:41:37;;;;;;;13.70;4.50;;;;;;;2.02;89.01;98324.91;2111781;84;21163;-67
2020/12/25 06:44:38;;;;;;;13.93;4.67;;;;;;;2.01;89.09;98324.54;2206195;80;21689;-65
2020/12/25 06:47:39;;;;;;;16.00;5.15;;;;;;;2.01;89.11;98327.55;2111533;84;21642;-64
2020/12/25 06:50:40;;;;;;;16.05;4.80;;;;;;;1.99;89.17;98328.91;2205832;81;21148;-64
2020/12/25 06:53:42;;;;;;;15.83;4.85;;;;;;;1.98;89.28;98336.72;2111664;84;21107;-68
2020/12/25 06:56:43;;;;;;;13.78;4.47;;;;;;;1.99;89.33;98345.72;2205867;80;21135;-64
2020/12/25 06:59:44;;;;;;;12.98;4.65;;;;;;;2.01;89.29;98347.82;2111807;84;21752;-64
2020/12/25 07:02:45;;;;;;;15.65;5.15;;;;;;;1.99;89.34;98358.66;2206117;80;21313;-64
2020/12/25 07:05:46;;;;;;;16.57;5.12;;;;;;;2.02;89.46;98363.72;2111702;84;21161;-65
2020/12/25 07:08:47;;;;;;;16.25;5.33;;;;;;;2.01;89.69;98366.36;2205995;80;21278;-64
2020/12/25 07:11:49;;;;;;;17.70;5.17;;;;;;;1.99;89.53;98362.53;2111927;84;21732;-64
2020/12/25 07:14:50;;;;;;;17.82;5.35;;;;;;;2.02;89.46;98370.64;2206243;81;21697;-65
2020/12/25 07:17:51;;;;;;;14.93;4.65;;;;;;;2.01;89.37;98371.11;2111721;84;21312;-71
2020/12/25 07:20:52;;;;;;;16.02;4.53;;;;;;;2.01;89.34;98376.28;2206483;80;21274;-65
2020/12/25 07:23:54;;;;;;;16.32;5.03;;;;;;;2.03;89.15;98383.98;2111718;84;21158;-68
2020/12/25 07:26:55;;;;;;;15.93;4.70;;;;;;;2.02;89.10;98384.87;2205996;80;21297;-65
2020/12/25 07:29:56;;;;;;;15.55;4.60;;;;;;;2.05;89.36;98381.75;2111933;84;21292;-74
2020/12/25 07:32:57;;;;;;;14.30;4.35;;;;;;;2.03;89.00;98391.28;2205983;81;21273;-66
2020/12/25 07:35:58;;;;;;;16.17;4.40;;;;;;;2.04;89.43;98390.40;2111925;84;21289;-74
2020/12/25 07:39:00;;;;;;;15.03;4.70;;;;;;;2.04;89.38;98390.40;2206149;80;21694;-69
2020/12/25 07:42:01;;;;;;;15.43;4.58;;;;;;;2.04;89.32;98397.30;2112054;84;21297;-64
2020/12/25 07:45:02;;;;;;;16.62;4.90;;;;;;;2.01;89.39;98394.39;2205974;80;21252;-64
2020/12/25 07:48:03;;;;;;;16.23;5.40;;;;;;;1.99;89.50;98396.16;2091532;84;21316;-64
2020/12/25 07:51:05;;;;;;;17.85;4.70;;;;;;;2.00;89.71;98393.14;2206363;80;21147;-65
2020/12/25 07:54:06;;;;;;;17.45;5.05;;;;;;;2.02;89.92;98397.80;2111649;84;21150;-66
2020/12/25 07:57:07;;;;;;;16.10;5.00;;;;;;;2.02;89.96;98392.17;2206168;81;21281;-67
2020/12/25 08:00:09;;;;;;;17.05;5.30;;;;;;;2.04;89.96;98398.59;2112137;84;21618;-65
2020/12/25 08:03:10;;;;;;;16.55;5.10;;;;;;;2.06;89.94;98396.81;2206080;80;21702;-65
2020/12/25 08:06:11;;;;;;;16.42;5.15;;;;;;;2.07;89.96;98399.34;2091562;84;21146;-65
2020/12/25 08:09:12;;;;;;;18.20;5.10;;;;;;;2.13;90.04;98409.94;2175437;81;21278;-64
2020/12/25 08:12:14;;;;;;;16.32;5.20;;;;;;;2.18;89.88;98418.84;2111690;84;21150;-64
2020/12/25 08:15:15;;;;;;;16.15;5.37;;;;;;;2.23;90.02;98413.91;2175640;81;21746;-65
2020/12/25 08:18:17;;;;;;;17.07;5.65;;;;;;;2.33;89.66;98416.17;2111580;84;21174;-65
2020/12/25 08:21:18;;;;;;;17.65;5.47;;;;;;;2.43;89.43;98417.11;2206319;80;21622;-65
2020/12/25 08:24:19;;;;;;;17.00;5.20;;;;;;;2.48;89.10;98415.66;2112110;84;21288;-68
2020/12/25 08:27:21;;;;;;;15.28;5.12;;;;;;;2.55;88.81;98414.54;2205943;80;21166;-64
2020/12/25 08:30:22;;;;;;;17.10;5.53;;;;;;;2.63;88.74;98416.02;2111745;84;21280;-66
2020/12/25 08:33:23;;;;;;;18.92;5.90;;;;;;;2.68;88.64;98420.59;2206448;80;21293;-74
2020/12/25 08:36:24;;;;;;;19.52;5.67;;;;;;;2.75;88.48;98421.61;2112093;84;21159;-68
2020/12/25 08:39:26;;;;;;;19.25;6.50;;;;;;;2.83;87.81;98428.26;2208409;80;21296;-64
2020/12/25 08:42:27;;;;;;;19.30;6.10;;;;;;;2.87;87.83;98426.79;2213481;80;21265;-67
2020/12/25 08:45:29;;;;;;;17.30;5.17;;;;;;;2.92;88.07;98439.60;2118695;84;21589;-65
2020/12/25 08:48:30;;;;;;;16.15;4.95;;;;;;;2.95;87.77;98441.62;2200267;81;21139;-64
2020/12/25 08:51:31;;;;;;;17.17;5.10;;;;;;;2.98;87.50;98444.55;2200059;81;21267;-64
2020/12/25 08:54:32;;;;;;;14.75;4.78;;;;;;;3.02;87.29;98446.14;2200084;81;21281;-65
2020/12/25 08:57:33;;;;;;;14.35;4.62;;;;;;;3.08;87.09;98448.95;2200169;81;21300;-65
2020/12/25 09:00:34;;;;;;;16.60;5.60;;;;;;;3.11;87.17;98456.61;2200095;81;21281;-67
2020/12/25 09:03:36;;;;;;;17.17;5.20;;;;;;;3.09;87.31;98464.45;2173773;81;21730;-64
2020/12/25 09:06:37;;;;;;;15.35;4.55;;;;;;;3.13;86.46;98461.28;2199875;81;21726;-65
2020/12/25 09:09:38;;;;;;;15.68;4.87;;;;;;;3.16;86.36;98458.60;2200039;81;21270;-64
2020/12/25 09:12:39;;;;;;;16.45;5.70;;;;;;;3.18;85.79;98462.44;2173771;81;21714;-65
2020/12/25 09:15:40;;;;;;;15.05;5.12;;;;;;;3.17;85.19;98467.21;2118901;83;21288;-64
2020/12/25 09:18:41;;;;;;;16.90;5.35;;;;;;;3.18;85.88;98471.04;2173630;81;21290;-65
2020/12/25 09:21:43;;;;;;;17.07;5.33;;;;;;;3.24;85.92;98477.28;2199893;81;21717;-71
2020/12/25 09:24:45;;;;;;;17.92;5.40;;;;;;;3.32;85.98;98470.97;2200036;81;21305;-71
2020/12/25 09:27:46;;;;;;;18.62;5.75;;;;;;;3.37;85.76;98469.06;2199794;81;21262;-67
2020/12/25 09:30:47;;;;;;;16.35;5.30;;;;;;;3.42;85.38;98466.70;2199882;81;21721;-65
2020/12/25 09:33:48;;;;;;;16.93;5.30;;;;;;;;;;2199845;81;21174;-68
2020/12/25 09:36:50;;;;;;;17.57;5.10;;;;;;;3.55;85.94;98465.78;2199762;81;21144;-71
2020/12/25 09:39:51;;;;;;;16.73;4.90;;;;;;;3.53;84.69;98467.58;2199770;80;21282;-65
2020/12/25 09:42:52;;;;;;;16.67;5.00;;;;;;;3.53;85.06;98468.03;2118490;83;21292;-68
2020/12/25 09:45:53;;;;;;;17.52;5.00;;;;;;;3.56;84.74;98467.91;2200008;81;21270;-65
2020/12/25 09:48:54;;;;;;;16.97;5.20;;;;;;;3.61;85.25;98466.00;2199907;81;21776;-70
2020/12/25 09:51:57;;;;;;;16.65;5.10;;;;;;;3.67;84.95;98470.11;2118649;84;21554;-69
2020/12/25 09:54:58;;;;;;;16.10;4.78;;;;;;;3.67;83.61;98471.41;2200412;81;21282;-67
2020/12/25 09:57:59;;;;;;;13.28;3.83;;;;;;;3.57;83.54;98468.31;2174053;81;21156;-66
2020/12/25 10:01:00;;;;;;;16.62;4.37;;;;;;;3.53;83.73;98470.63;2173654;81;21262;-72
2020/12/25 10:04:02;;;;;;;16.95;4.92;;;;;;;3.45;82.61;98467.88;2173662;81;21702;-76
2020/12/25 10:07:03;;;;;;;16.32;4.42;;;;;;;3.41;84.42;98469.35;2173850;81;21587;-74
2020/12/25 10:10:04;;;;;;;17.23;5.03;;;;;;;3.40;83.72;98474.97;2200014;81;21281;-70
2020/12/25 10:13:07;;;;;;;16.20;5.15;;;;;;;3.37;84.42;98476.38;2199905;81;21277;-68
2020/12/25 10:16:09;;;;;;;17.80;5.17;;;;;;;3.29;84.48;98477.97;2200108;81;21290;-70
2020/12/25 10:19:12;;;;;;;18.55;5.70;;;;;;;3.23;84.59;98474.75;2118901;84;21272;-67
2020/12/25 10:22:13;;;;;;;15.40;4.55;;;;;;;3.21;84.79;98473.98;2199754;81;21151;-71
2020/12/25 10:25:15;;;;;;;15.95;5.30;;;;;;;3.10;84.22;98474.35;2199978;81;21301;-74
2020/12/25 10:28:16;;;;;;;19.07;5.47;;;;;;;3.00;85.64;98471.70;2199971;81;21286;-74
2020/12/25 10:31:17;;;;;;;14.75;4.83;;;;;;;2.87;84.26;98477.77;2118917;83;21281;-68
2020/12/25 10:34:19;;;;;;;15.08;4.70;;;;;;;2.84;85.54;98478.72;2199978;81;21288;-71
2020/12/25 10:37:20;;;;;;;12.05;4.03;;;;;;;2.87;86.27;98482.48;2118902;84;21586;-68
2020/12/25 10:40:23;;;;;;;14.18;4.40;;;;;;;2.90;85.28;98476.36;2198472;81;21321;-69
2020/12/25 10:43:24;;;;;;;14.65;4.03;;;;;;;2.98;85.20;98485.17;2111892;84;21775;-73
2020/12/25 10:46:25;;;;;;;15.35;4.15;;;;;;;3.01;84.59;98487.19;2206373;81;21306;-67
2020/12/25 10:49:26;;;;;;;12.18;3.25;;;;;;;2.99;84.22;98490.73;2111953;84;21312;-67
2020/12/25 10:52:28;;;;;;;15.65;3.83;;;;;;;2.97;82.76;98493.38;2176416;81;21694;-67
2020/12/25 10:55:29;;;;;;;16.02;4.20;;;;;;;3.00;83.87;98493.27;2111849;84;21759;-65
2020/12/25 10:58:30;;;;;;;17.57;4.12;;;;;;;2.99;83.16;98495.48;2206227;81;21594;-65
2020/12/25 11:01:32;;;;;;;17.45;4.60;;;;;;;2.95;82.89;98496.03;2206562;81;21171;-65
2020/12/25 11:04:33;;;;;;;16.02;4.40;;;;;;;2.95;83.32;98502.50;2112075;84;21328;-65
2020/12/25 11:07:35;;;;;;;18.35;4.80;;;;;;;2.98;83.83;98501.55;2206357;81;21297;-64
2020/12/25 11:10:37;;;;;;;19.75;5.10;;;;;;;2.99;83.51;98512.33;2112281;84;21308;-64
2020/12/25 11:13:38;;;;;;;20.80;6.05;;;;;;;2.97;82.67;98508.09;2175766;81;21170;-65
2020/12/25 11:16:40;;;;;;;20.08;5.87;;;;;;;2.93;82.90;98499.56;2111906;84;21304;-71
2020/12/25 11:19:41;;;;;;;19.40;5.83;;;;;;;2.89;82.85;98509.20;2206248;80;21318;-68
2020/12/25 11:22:42;;;;;;;18.48;5.25;;;;;;;2.85;82.28;98509.38;2112022;84;21333;-67
2020/12/25 11:25:43;;;;;;;17.67;5.10;;;;;;;2.87;83.71;98512.74;2206250;80;21265;-65
2020/12/25 11:28:44;;;;;;;18.07;5.05;;;;;;;2.85;82.36;98517.14;2112440;84;21158;-65
2020/12/25 11:31:46;;;;;;;17.10;4.83;;;;;;;2.80;82.23;98517.28;2206237;80;21705;-65
2020/12/25 11:34:47;;;;;;;18.30;4.75;;;;;;;2.75;82.19;98516.14;2111703;84;21150;-68
2020/12/25 11:37:48;;;;;;;16.73;4.75;;;;;;;2.71;79.98;98519.73;2206184;81;21293;-65
2020/12/25 11:40:49;;;;;;;17.07;4.60;;;;;;;2.69;81.36;98522.84;2111850;83;21328;-67
2020/12/25 11:43:51;;;;;;;13.95;4.00;;;;;;;2.68;82.29;98521.14;2206192;81;21598;-65
2020/12/25 11:46:52;;;;;;;13.72;3.40;;;;;;;2.71;82.42;98527.50;2111667;84;21138;-66
2020/12/25 11:49:54;;;;;;;12.85;3.55;;;;;;;2.72;80.34;98524.02;2205937;80;21147;-69
2020/12/25 11:52:55;;;;;;;16.07;3.75;;;;;;;2.75;80.27;98528.27;2112033;84;21308;-66
2020/12/25 11:55:56;;;;;;;13.38;3.52;;;;;;;2.78;80.54;98528.98;2206426;80;21282;-72
2020/12/25 11:58:57;;;;;;;16.57;4.35;;;;;;;2.85;79.05;98530.93;2091559;84;21336;-64
2020/12/25 12:01:58;;;;;;;13.48;3.37;;;;;;;2.85;79.55;98532.69;2175689;81;21476;-69
2020/12/25 12:05:00;;;;;;;17.12;4.15;;;;;;;2.86;80.00;98533.06;2111870;84;21297;-65
2020/12/25 12:08:01;;;;;;;15.80;4.22;;;;;;;2.83;80.39;98538.35;2206193;81;21127;-71
2020/12/25 12:11:02;;;;;;;13.60;3.12;;;;;;;2.84;81.20;98532.28;2111757;84;21292;-65
2020/12/25 12:14:03;;;;;;;13.32;3.52;;;;;;;2.82;78.96;98540.11;2206220;81;21273;-68
2020/12/25 12:17:04;;;;;;;13.80;3.20;;;;;;;2.81;78.82;98533.69;2111738;84;21736;-67
2020/12/25 12:20:05;;;;;;;14.13;3.55;;;;;;;2.86;78.36;98536.95;2206052;81;21745;-73
2020/12/25 12:23:06;;;;;;;13.03;3.25;;;;;;;2.87;79.06;98542.53;2111871;84;21605;-66
2020/12/25 12:26:08;;;;;;;13.25;2.92;;;;;;;2.88;78.69;98546.83;2206068;81;21717;-67
2020/12/25 12:29:09;;;;;;;13.85;3.33;;;;;;;2.82;77.68;98550.93;2111889;84;21594;-68
2020/12/25 12:32:10;;;;;;;11.25;2.80;;;;;;;2.83;79.42;98561.66;2175685;81;21543;-65
2020/12/25 12:35:11;;;;;;;13.68;3.02;;;;;;;2.82;79.27;98560.00;2111741;84;21590;-65
2020/12/25 12:38:12;;;;;;;10.43;2.70;;;;;;;2.80;74.24;98552.70;2206164;80;21159;-65
2020/12/25 12:41:13;;;;;;;10.50;2.80;;;;;;;2.81;78.07;98555.24;2127594;83;21198;-64
2020/12/25 12:44:15;;;;;;;10.08;2.58;;;;;;;2.82;79.05;98554.81;2200575;81;21314;-65
2020/12/25 12:47:16;;;;;;;7.67;2.30;;;;;;;2.79;77.90;98555.75;2144155;83;21295;-65
2020/12/25 12:50:17;;;;;;;8.98;2.47;;;;;;;2.76;78.03;98555.41;2200708;81;21271;-65
2020/12/25 12:53:18;;;;;;;10.65;2.60;;;;;;;2.74;77.63;98562.39;2144323;83;21126;-65
2020/12/25 12:56:19;;;;;;;8.00;2.45;;;;;;;2.76;78.00;98561.88;2200684;81;21281;-67
2020/12/25 12:59:20;;;;;;;8.25;2.47;;;;;;;2.78;77.27;98570.89;2144264;83;21320;-64
2020/12/25 13:02:22;;;;;;;9.23;2.25;;;;;;;2.79;78.13;98567.41;2200970;81;21135;-65
2020/12/25 13:05:23;;;;;;;9.30;2.55;;;;;;;2.78;77.36;98576.91;2143942;83;21554;-65
2020/12/25 13:08:25;;;;;;;10.78;2.45;;;;;;;2.76;77.81;98570.95;2200699;81;21714;-65
2020/12/25 13:11:26;;;;;;;11.20;2.92;;;;;;;2.76;77.55;98567.52;2143995;83;21324;-65
2020/12/25 13:14:27;;;;;;;10.55;2.75;;;;;;;2.75;77.08;98572.30;2176510;81;21286;-66
2020/12/25 13:17:28;;;;;;;11.12;2.55;;;;;;;2.73;77.68;98580.12;2143758;83;21589;-65
2020/12/25 13:20:29;;;;;;;9.10;2.52;;;;;;;2.72;77.30;98584.89;2177121;81;21286;-64
2020/12/25 13:23:30;;;;;;;11.38;2.87;;;;;;;2.72;78.14;98587.48;2144030;83;21288;-65
2020/12/25 13:26:31;;;;;;;8.93;2.70;;;;;;;2.68;78.34;98588.47;2200887;81;21317;-65
2020/12/25 13:29:32;;;;;;;10.15;2.67;;;;;;;2.67;78.11;98596.30;2143798;83;21145;-65
2020/12/25 13:32:33;;;;;;;10.50;2.40;;;;;;;2.63;77.70;98600.74;2200672;81;21258;-65
2020/12/25 13:35:35;;;;;;;10.15;2.42;;;;;;;2.61;77.08;98602.52;2144026;83;21728;-64
2020/12/25 13:38:36;;;;;;;8.13;2.45;;;;;;;2.58;77.72;98603.92;2200797;81;21285;-64
2020/12/25 13:41:37;;;;;;;8.58;2.35;;;;;;;2.56;78.31;98600.08;2126418;83;21308;-64
2020/12/25 13:44:38;;;;;;;11.20;2.60;;;;;;;2.56;77.70;98613.48;2206100;81;21702;-65
2020/12/25 13:47:39;;;;;;;10.72;2.37;;;;;;;2.52;78.03;98601.07;2111651;84;21681;-66
2020/12/25 13:50:40;;;;;;;9.88;2.37;;;;;;;2.50;78.68;98620.13;2206005;80;21147;-69
2020/12/25 13:53:41;;;;;;;10.53;2.40;;;;;;;2.47;77.34;98620.23;2205987;81;21147;-64
2020/12/25 13:56:42;;;;;;;14.50;3.20;;;;;;;2.45;78.05;98635.82;2111555;84;21142;-64
2020/12/25 13:59:44;;;;;;;10.90;2.60;;;;;;;2.42;78.47;98630.73;2206080;80;21293;-64
2020/12/25 14:02:45;;;;;;;10.48;2.50;;;;;;;2.41;78.18;98647.16;2111940;84;21312;-68
2020/12/25 14:05:52;;;;;;;10.63;2.50;;;;;;;2.38;79.28;98637.73;2205812;80;21155;-65
2020/12/25 14:08:53;;;;;;;12.47;2.47;;;;;;;2.36;79.09;98643.42;2111877;84;21724;-64
2020/12/25 14:11:54;;;;;;;10.03;2.98;;;;;;;2.35;78.98;98642.17;2206589;80;21576;-65
2020/12/25 14:14:55;;;;;;;15.53;3.50;;;;;;;2.33;78.76;98640.06;2112105;84;21296;-64